sensor_id;sensor_type;location;lat;lon;timestamp;pressure;altitude;pressure_sealevel;temperature;humidity
65754;BME280;52488;47.502;18.940;2022-07-29T00:00:20;98090.81;;;22.79;47.48
65754;BME280;52488;47.502;18.940;2022-07-29T00:01:22;98091.44;;;22.75;47.30
65754;BME280;52488;47.502;18.940;2022-07-29T00:02:26;98098.19;;;22.62;47.43
65754;BME280;52488;47.502;18.940;2022-07-29T00:03:34;98098.44;;;22.76;47.22
65754;BME280;52488;47.502;18.940;2022-07-29T00:04:41;98090.25;;;22.86;47.00
65754;BME280;52488;47.502;18.940;2022-07-29T00:05:44;98088.00;;;22.77;47.14
65754;BME280;52488;47.502;18.940;2022-07-29T00:06:47;98093.75;;;22.85;46.88
65754;BME280;52488;47.502;18.940;2022-07-29T00:07:50;98095.28;;;22.90;47.06
65754;BME280;52488;47.502;18.940;2022-07-29T00:08:52;98088.97;;;22.89;47.09
65754;BME280;52488;47.502;18.940;2022-07-29T00:09:55;98090.19;;;22.82;47.13
65754;BME280;52488;47.502;18.940;2022-07-29T00:10:58;98094.09;;;22.67;47.49
65754;BME280;52488;47.502;18.940;2022-07-29T00:12:04;98096.22;;;22.69;47.45
65754;BME280;52488;47.502;18.940;2022-07-29T00:13:07;98091.19;;;22.63;47.58
65754;BME280;52488;47.502;18.940;2022-07-29T00:14:09;98087.19;;;22.72;47.53
65754;BME280;52488;47.502;18.940;2022-07-29T00:15:13;98095.47;;;22.66;47.52
65754;BME280;52488;47.502;18.940;2022-07-29T00:16:16;98094.56;;;22.57;47.70
65754;BME280;52488;47.502;18.940;2022-07-29T00:17:18;98087.66;;;22.60;47.65
65754;BME280;52488;47.502;18.940;2022-07-29T00:18:21;98089.28;;;22.72;47.44
65754;BME280;52488;47.502;18.940;2022-07-29T00:19:24;98087.56;;;22.56;47.77
65754;BME280;52488;47.502;18.940;2022-07-29T00:20:27;98088.56;;;22.71;47.50
65754;BME280;52488;47.502;18.940;2022-07-29T00:21:30;98087.19;;;22.72;47.57
65754;BME280;52488;47.502;18.940;2022-07-29T00:22:32;98084.16;;;22.60;48.10
65754;BME280;52488;47.502;18.940;2022-07-29T00:23:35;98091.09;;;22.59;47.84
65754;BME280;52488;47.502;18.940;2022-07-29T00:24:38;98091.09;;;22.59;48.06
65754;BME280;52488;47.502;18.940;2022-07-29T00:25:47;98084.06;;;22.56;47.85
65754;BME280;52488;47.502;18.940;2022-07-29T00:26:49;98094.53;;;22.55;47.97
65754;BME280;52488;47.502;18.940;2022-07-29T00:27:52;98090.13;;;22.46;48.22
65754;BME280;52488;47.502;18.940;2022-07-29T00:28:55;98089.69;;;22.58;48.06
65754;BME280;52488;47.502;18.940;2022-07-29T00:30:18;98090.22;;;22.50;48.29
65754;BME280;52488;47.502;18.940;2022-07-29T00:31:20;98088.06;;;22.47;48.29
65754;BME280;52488;47.502;18.940;2022-07-29T00:32:23;98093.28;;;22.30;48.68
65754;BME280;52488;47.502;18.940;2022-07-29T00:33:26;98097.91;;;22.50;48.32
65754;BME280;52488;47.502;18.940;2022-07-29T00:34:30;98092.00;;;22.35;48.65
65754;BME280;52488;47.502;18.940;2022-07-29T00:35:52;98086.63;;;22.46;48.43
65754;BME280;52488;47.502;18.940;2022-07-29T00:36:57;98095.19;;;22.54;48.25
65754;BME280;52488;47.502;18.940;2022-07-29T00:37:59;98095.19;;;22.54;48.29
65754;BME280;52488;47.502;18.940;2022-07-29T00:39:03;98095.97;;;22.56;48.20
65754;BME280;52488;47.502;18.940;2022-07-29T00:40:06;98096.41;;;22.45;48.44
65754;BME280;52488;47.502;18.940;2022-07-29T00:41:13;98092.34;;;22.52;48.31
65754;BME280;52488;47.502;18.940;2022-07-29T00:42:16;98098.00;;;22.54;48.29
65754;BME280;52488;47.502;18.940;2022-07-29T00:43:23;98092.94;;;22.46;48.42
65754;BME280;52488;47.502;18.940;2022-07-29T00:44:26;98094.84;;;22.37;48.77
65754;BME280;52488;47.502;18.940;2022-07-29T00:45:29;98086.28;;;22.29;48.85
65754;BME280;52488;47.502;18.940;2022-07-29T00:46:32;98089.66;;;22.56;48.25
65754;BME280;52488;47.502;18.940;2022-07-29T00:47:35;98096.34;;;22.43;48.64
65754;BME280;52488;47.502;18.940;2022-07-29T00:48:38;98090.69;;;22.38;48.71
65754;BME280;52488;47.502;18.940;2022-07-29T00:49:42;98093.41;;;22.36;48.65
65754;BME280;52488;47.502;18.940;2022-07-29T00:50:45;98097.00;;;22.39;48.69
65754;BME280;52488;47.502;18.940;2022-07-29T00:51:48;98094.66;;;22.29;48.94
65754;BME280;52488;47.502;18.940;2022-07-29T00:52:52;98095.22;;;22.22;49.11
65754;BME280;52488;47.502;18.940;2022-07-29T00:53:55;98097.34;;;22.23;48.98
65754;BME280;52488;47.502;18.940;2022-07-29T00:54:58;98092.28;;;22.16;49.25
65754;BME280;52488;47.502;18.940;2022-07-29T00:56:07;98094.41;;;22.17;49.19
65754;BME280;52488;47.502;18.940;2022-07-29T00:57:11;98088.94;;;22.23;49.09
65754;BME280;52488;47.502;18.940;2022-07-29T00:58:14;98093.03;;;22.18;49.33
65754;BME280;52488;47.502;18.940;2022-07-29T00:59:17;98092.28;;;22.16;49.43
65754;BME280;52488;47.502;18.940;2022-07-29T01:00:22;98094.41;;;22.17;49.29
65754;BME280;52488;47.502;18.940;2022-07-29T01:01:26;98090.13;;;22.14;49.40
65754;BME280;52488;47.502;18.940;2022-07-29T01:02:33;98088.75;;;22.15;49.43
65754;BME280;52488;47.502;18.940;2022-07-29T01:03:36;98082.63;;;22.23;49.32
65754;BME280;52488;47.502;18.940;2022-07-29T01:04:39;98090.22;;;22.18;49.23
65754;BME280;52488;47.502;18.940;2022-07-29T01:05:43;98085.72;;;22.05;49.49
65754;BME280;52488;47.502;18.940;2022-07-29T01:06:53;98084.53;;;22.14;49.33
65754;BME280;52488;47.502;18.940;2022-07-29T01:08:02;98083.25;;;22.19;49.28
65754;BME280;52488;47.502;18.940;2022-07-29T01:09:05;98083.81;;;22.13;49.40
65754;BME280;52488;47.502;18.940;2022-07-29T01:10:09;98085.94;;;22.15;49.40
65754;BME280;52488;47.502;18.940;2022-07-29T01:11:12;98083.06;;;22.11;49.81
65754;BME280;52488;47.502;18.940;2022-07-29T01:12:21;98080.84;;;22.07;49.54
65754;BME280;52488;47.502;18.940;2022-07-29T01:13:25;98087.87;;;22.08;49.55
65754;BME280;52488;47.502;18.940;2022-07-29T01:14:29;98080.34;;;22.15;49.35
65754;BME280;52488;47.502;18.940;2022-07-29T01:15:34;98078.78;;;22.08;49.56
65754;BME280;52488;47.502;18.940;2022-07-29T01:26:22;98078.88;;;22.10;49.61
65754;BME280;52488;47.502;18.940;2022-07-29T01:30:09;98073.75;;;22.02;49.80
65754;BME280;52488;47.502;18.940;2022-07-29T01:31:20;98073.66;;;21.98;49.79
65754;BME280;52488;47.502;18.940;2022-07-29T01:32:29;98075.25;;;22.07;49.68
65754;BME280;52488;47.502;18.940;2022-07-29T01:33:40;98070.22;;;22.00;49.91
65754;BME280;52488;47.502;18.940;2022-07-29T01:36:24;98074.59;;;22.09;49.88
65754;BME280;52488;47.502;18.940;2022-07-29T01:37:44;98081.34;;;21.98;49.90
65754;BME280;52488;47.502;18.940;2022-07-29T01:38:54;98075.84;;;22.02;49.87
65754;BME280;52488;47.502;18.940;2022-07-29T01:40:03;98079.81;;;21.93;50.22
65754;BME280;52488;47.502;18.940;2022-07-29T01:41:15;98071.91;;;21.83;50.40
65754;BME280;52488;47.502;18.940;2022-07-29T01:42:49;98084.12;;;21.98;50.15
65754;BME280;52488;47.502;18.940;2022-07-29T01:44:13;98072.81;;;21.92;50.26
65754;BME280;52488;47.502;18.940;2022-07-29T01:45:40;98075.09;;;21.99;50.13
65754;BME280;52488;47.502;18.940;2022-07-29T01:46:54;98072.75;;;21.90;50.40
65754;BME280;52488;47.502;18.940;2022-07-29T01:48:24;98071.34;;;21.88;50.48
65754;BME280;52488;47.502;18.940;2022-07-29T01:49:33;98073.91;;;21.78;50.80
65754;BME280;52488;47.502;18.940;2022-07-29T01:50:46;98078.41;;;21.92;50.48
65754;BME280;52488;47.502;18.940;2022-07-29T01:51:58;98075.56;;;21.90;50.42
65754;BME280;52488;47.502;18.940;2022-07-29T01:53:05;98081.16;;;21.90;50.46
65754;BME280;52488;47.502;18.940;2022-07-29T01:54:26;98074.31;;;21.97;50.70
65754;BME280;52488;47.502;18.940;2022-07-29T01:55:35;98075.56;;;21.90;50.70
65754;BME280;52488;47.502;18.940;2022-07-29T01:56:39;98071.38;;;21.91;50.54
65754;BME280;52488;47.502;18.940;2022-07-29T01:57:46;98076.84;;;21.84;50.74
65754;BME280;52488;47.502;18.940;2022-07-29T01:58:51;98066.13;;;21.75;51.01
65754;BME280;52488;47.502;18.940;2022-07-29T01:59:57;98066.50;;;21.91;50.79
65754;BME280;52488;47.502;18.940;2022-07-29T02:01:01;98066.22;;;21.79;50.86
65754;BME280;52488;47.502;18.940;2022-07-29T02:02:07;98065.78;;;21.91;50.89
65754;BME280;52488;47.502;18.940;2022-07-29T02:03:17;98066.25;;;21.81;51.04
65754;BME280;52488;47.502;18.940;2022-07-29T02:04:21;98065.53;;;21.80;50.93
65754;BME280;52488;47.502;18.940;2022-07-29T02:05:35;98069.69;;;21.77;51.09
65754;BME280;52488;47.502;18.940;2022-07-29T02:06:40;98064.16;;;21.81;50.93
65754;BME280;52488;47.502;18.940;2022-07-29T02:07:47;98060.47;;;21.73;51.24
65754;BME280;52488;47.502;18.940;2022-07-29T02:08:51;98069.81;;;21.83;50.98
65754;BME280;52488;47.502;18.940;2022-07-29T02:09:55;98063.59;;;21.87;51.08
65754;BME280;52488;47.502;18.940;2022-07-29T02:11:00;98064.41;;;21.92;50.78
65754;BME280;52488;47.502;18.940;2022-07-29T02:12:05;98075.56;;;21.90;50.81
65754;BME280;52488;47.502;18.940;2022-07-29T02:13:11;98067.34;;;21.98;50.61
65754;BME280;52488;47.502;18.940;2022-07-29T02:14:18;98063.47;;;21.81;51.08
65754;BME280;52488;47.502;18.940;2022-07-29T02:15:24;98066.88;;;21.77;51.29
65754;BME280;52488;47.502;18.940;2022-07-29T02:16:30;98070.53;;;21.84;51.25
65754;BME280;52488;47.502;18.940;2022-07-29T02:17:55;98064.72;;;21.76;51.38
65754;BME280;52488;47.502;18.940;2022-07-29T02:19:01;98065.41;;;21.74;51.49
65754;BME280;52488;47.502;18.940;2022-07-29T02:20:05;98061.94;;;21.76;51.53
65754;BME280;52488;47.502;18.940;2022-07-29T02:21:08;98060.53;;;21.75;51.48
65754;BME280;52488;47.502;18.940;2022-07-29T02:22:18;98065.63;;;21.82;51.39
65754;BME280;52488;47.502;18.940;2022-07-29T02:23:23;98057.97;;;21.85;51.26
65754;BME280;52488;47.502;18.940;2022-07-29T02:24:28;98059.91;;;21.78;51.57
65754;BME280;52488;47.502;18.940;2022-07-29T02:25:33;98057.94;;;21.83;51.42
65754;BME280;52488;47.502;18.940;2022-07-29T02:26:41;98056.59;;;21.86;51.27
65754;BME280;52488;47.502;18.940;2022-07-29T02:27:46;98055.78;;;21.81;51.39
65754;BME280;52488;47.502;18.940;2022-07-29T02:28:52;98060.03;;;21.82;51.31
65754;BME280;52488;47.502;18.940;2022-07-29T02:29:58;98057.81;;;21.79;51.44
65754;BME280;52488;47.502;18.940;2022-07-29T02:31:03;98059.94;;;21.80;51.44
65754;BME280;52488;47.502;18.940;2022-07-29T02:32:07;98052.81;;;21.73;51.62
65754;BME280;52488;47.502;18.940;2022-07-29T02:33:13;98060.53;;;21.75;51.54
65754;BME280;52488;47.502;18.940;2022-07-29T02:34:18;98058.69;;;21.85;51.37
65754;BME280;52488;47.502;18.940;2022-07-29T02:35:22;98061.38;;;21.81;51.41
65754;BME280;52488;47.502;18.940;2022-07-29T02:36:26;98065.69;;;21.86;51.33
65754;BME280;52488;47.502;18.940;2022-07-29T02:37:30;98064.69;;;21.74;51.64
65754;BME280;52488;47.502;18.940;2022-07-29T02:38:35;98061.03;;;21.67;51.81
65754;BME280;52488;47.502;18.940;2022-07-29T02:39:54;98054.25;;;21.76;51.60
65754;BME280;52488;47.502;18.940;2022-07-29T02:40:58;98055.47;;;21.67;51.82
65754;BME280;52488;47.502;18.940;2022-07-29T02:42:07;98053.47;;;21.72;51.73
65754;BME280;52488;47.502;18.940;2022-07-29T02:43:12;98051.13;;;21.62;52.02
65754;BME280;52488;47.502;18.940;2022-07-29T02:44:17;98055.47;;;21.67;51.95
65754;BME280;52488;47.502;18.940;2022-07-29T02:45:21;98060.28;;;21.65;52.03
65754;BME280;52488;47.502;18.940;2022-07-29T02:46:29;98046.41;;;21.69;51.96
65754;BME280;52488;47.502;18.940;2022-07-29T02:47:59;98051.03;;;21.58;52.23
65754;BME280;52488;47.502;18.940;2022-07-29T02:50:34;98053.97;;;21.64;52.05
65754;BME280;52488;47.502;18.940;2022-07-29T02:51:43;98058.16;;;21.63;52.05
65754;BME280;52488;47.502;18.940;2022-07-29T02:54:02;98058.19;;;21.65;51.95
65754;BME280;52488;47.502;18.940;2022-07-29T02:55:30;98051.25;;;21.66;51.92
65754;BME280;52488;47.502;18.940;2022-07-29T02:56:35;98059.38;;;21.56;52.21
65754;BME280;52488;47.502;18.940;2022-07-29T02:57:47;98060.66;;;21.51;52.20
65754;BME280;52488;47.502;18.940;2022-07-29T02:58:59;98057.28;;;21.56;52.21
65754;BME280;52488;47.502;18.940;2022-07-29T03:00:07;98059.38;;;21.56;52.32
65754;BME280;52488;47.502;18.940;2022-07-29T03:01:14;98054.53;;;21.58;52.22
65754;BME280;52488;47.502;18.940;2022-07-29T03:02:25;98049.63;;;21.57;52.42
65754;BME280;52488;47.502;18.940;2022-07-29T03:03:38;98053.06;;;21.55;52.35
65754;BME280;52488;47.502;18.940;2022-07-29T03:04:41;98057.28;;;21.56;52.43
65754;BME280;52488;47.502;18.940;2022-07-29T03:05:46;98055.03;;;21.49;52.56
65754;BME280;52488;47.502;18.940;2022-07-29T03:06:49;98055.66;;;21.47;52.68
65754;BME280;52488;47.502;18.940;2022-07-29T03:08:00;98050.63;;;21.42;52.69
65754;BME280;52488;47.502;18.940;2022-07-29T03:09:05;98059.63;;;21.38;52.87
65754;BME280;52488;47.502;18.940;2022-07-29T03:10:15;98044.34;;;21.41;52.83
65754;BME280;52488;47.502;18.940;2022-07-29T03:11:18;98051.41;;;21.44;52.66
65754;BME280;52488;47.502;18.940;2022-07-29T03:12:42;98058.37;;;21.43;52.71
65754;BME280;52488;47.502;18.940;2022-07-29T03:13:45;98059.97;;;21.52;52.50
65754;BME280;52488;47.502;18.940;2022-07-29T03:14:49;98053.62;;;21.50;52.54
65754;BME280;52488;47.502;18.940;2022-07-29T03:15:52;98054.84;;;21.43;52.73
65754;BME280;52488;47.502;18.940;2022-07-29T03:16:56;98059.97;;;21.52;52.48
65754;BME280;52488;47.502;18.940;2022-07-29T03:18:00;98053.81;;;21.58;52.31
65754;BME280;52488;47.502;18.940;2022-07-29T03:19:03;98055.66;;;21.47;52.69
65754;BME280;52488;47.502;18.940;2022-07-29T03:20:08;98057.63;;;21.43;52.80
65754;BME280;52488;47.502;18.940;2022-07-29T03:21:11;98056.09;;;21.38;52.97
65754;BME280;52488;47.502;18.940;2022-07-29T03:22:14;98053.75;;;21.28;53.18
65754;BME280;52488;47.502;18.940;2022-07-29T03:23:21;98053.94;;;21.34;53.00
65754;BME280;52488;47.502;18.940;2022-07-29T03:25:28;98054.66;;;21.34;52.92
65754;BME280;52488;47.502;18.940;2022-07-29T03:26:31;98063.13;;;21.39;52.85
65754;BME280;52488;47.502;18.940;2022-07-29T03:27:34;98061.66;;;21.35;52.89
65754;BME280;52488;47.502;18.940;2022-07-29T03:28:37;98053.97;;;21.36;52.81
65754;BME280;52488;47.502;18.940;2022-07-29T03:29:41;98056.84;;;21.38;52.70
65754;BME280;52488;47.502;18.940;2022-07-29T03:30:50;98058.16;;;21.35;52.82
65754;BME280;52488;47.502;18.940;2022-07-29T03:31:54;98055.25;;;21.31;52.96
65754;BME280;52488;47.502;18.940;2022-07-29T03:32:56;98052.56;;;21.35;53.00
65754;BME280;52488;47.502;18.940;2022-07-29T03:34:00;98055.19;;;21.29;53.12
65754;BME280;52488;47.502;18.940;2022-07-29T03:35:03;98058.91;;;21.38;52.76
65754;BME280;52488;47.502;18.940;2022-07-29T03:36:06;98051.91;;;21.37;52.89
65754;BME280;52488;47.502;18.940;2022-07-29T03:37:09;98063.22;;;21.43;52.74
65754;BME280;52488;47.502;18.940;2022-07-29T03:38:12;98062.50;;;21.42;52.79
65754;BME280;52488;47.502;18.940;2022-07-29T03:39:17;98059.56;;;21.36;52.87
65754;BME280;52488;47.502;18.940;2022-07-29T03:40:30;98053.94;;;21.34;52.78
65754;BME280;52488;47.502;18.940;2022-07-29T03:41:36;98052.56;;;21.35;52.76
65754;BME280;52488;47.502;18.940;2022-07-29T03:42:42;98056.06;;;21.35;52.86
65754;BME280;52488;47.502;18.940;2022-07-29T03:43:47;98055.50;;;21.41;52.68
65754;BME280;52488;47.502;18.940;2022-07-29T03:44:55;98059.63;;;21.38;52.71
65754;BME280;52488;47.502;18.940;2022-07-29T03:46:00;98053.41;;;21.42;52.63
65754;BME280;52488;47.502;18.940;2022-07-29T03:47:05;98054.66;;;21.34;52.81
65754;BME280;52488;47.502;18.940;2022-07-29T03:48:14;98059.69;;;21.40;52.71
65754;BME280;52488;47.502;18.940;2022-07-29T03:49:19;98058.84;;;21.35;52.88
65754;BME280;52488;47.502;18.940;2022-07-29T03:50:22;98057.59;;;21.41;52.70
65754;BME280;52488;47.502;18.940;2022-07-29T03:51:26;98064.59;;;21.42;52.55
65754;BME280;52488;47.502;18.940;2022-07-29T03:52:35;98058.84;;;21.35;52.81
65754;BME280;52488;47.502;18.940;2022-07-29T03:53:38;98053.69;;;21.26;53.25
65754;BME280;52488;47.502;18.940;2022-07-29T03:54:41;98063.00;;;21.32;53.02
65754;BME280;52488;47.502;18.940;2022-07-29T03:55:52;98068.62;;;21.34;52.98
65754;BME280;52488;47.502;18.940;2022-07-29T03:56:58;98063.03;;;21.34;52.92
65754;BME280;52488;47.502;18.940;2022-07-29T03:58:02;98065.87;;;21.37;52.80
65754;BME280;52488;47.502;18.940;2022-07-29T03:59:06;98064.28;;;21.29;53.13
65754;BME280;52488;47.502;18.940;2022-07-29T04:00:09;98072.72;;;21.31;53.12
65754;BME280;52488;47.502;18.940;2022-07-29T04:01:13;98067.13;;;21.31;53.11
65754;BME280;52488;47.502;18.940;2022-07-29T04:02:18;98071.41;;;21.34;53.19
65754;BME280;52488;47.502;18.940;2022-07-29T04:03:25;98068.62;;;21.34;53.15
65754;BME280;52488;47.502;18.940;2022-07-29T04:04:28;98067.25;;;21.35;52.96
65754;BME280;52488;47.502;18.940;2022-07-29T04:05:34;98070.03;;;21.35;52.88
65754;BME280;52488;47.502;18.940;2022-07-29T04:06:39;98067.13;;;21.31;52.96
65754;BME280;52488;47.502;18.940;2022-07-29T04:07:49;98063.75;;;21.35;53.00
65754;BME280;52488;47.502;18.940;2022-07-29T04:08:52;98073.81;;;21.46;52.74
65754;BME280;52488;47.502;18.940;2022-07-29T04:09:58;98066.66;;;21.39;52.83
65754;BME280;52488;47.502;18.940;2022-07-29T04:11:01;98067.53;;;21.48;52.58
65754;BME280;52488;47.502;18.940;2022-07-29T04:12:05;98073.50;;;21.34;52.85
65754;BME280;52488;47.502;18.940;2022-07-29T04:13:08;98065.87;;;21.37;53.07
65754;BME280;52488;47.502;18.940;2022-07-29T04:14:10;98070.03;;;21.35;52.88
65754;BME280;52488;47.502;18.940;2022-07-29T04:15:14;98063.78;;;21.37;52.82
65754;BME280;52488;47.502;18.940;2022-07-29T04:16:17;98067.09;;;21.29;52.93
65754;BME280;52488;47.502;18.940;2022-07-29T04:17:19;98072.78;;;21.33;52.98
65754;BME280;52488;47.502;18.940;2022-07-29T04:18:23;98070.75;;;21.36;53.00
65754;BME280;52488;47.502;18.940;2022-07-29T04:19:26;98066.41;;;21.31;52.88
65754;BME280;52488;47.502;18.940;2022-07-29T04:20:29;98079.09;;;21.34;53.06
65754;BME280;52488;47.502;18.940;2022-07-29T04:21:40;98065.81;;;21.34;52.98
65754;BME280;52488;47.502;18.940;2022-07-29T04:22:43;98073.53;;;21.36;53.00
65754;BME280;52488;47.502;18.940;2022-07-29T04:23:45;98069.34;;;21.35;52.97
65754;BME280;52488;47.502;18.940;2022-07-29T04:24:55;98068.22;;;21.46;52.60
65754;BME280;52488;47.502;18.940;2022-07-29T04:26:04;98068.66;;;21.37;52.99
65754;BME280;52488;47.502;18.940;2022-07-29T04:27:07;98067.19;;;21.33;52.76
65754;BME280;52488;47.502;18.940;2022-07-29T04:28:10;98070.03;;;21.35;53.02
65754;BME280;52488;47.502;18.940;2022-07-29T04:29:13;98069.81;;;21.27;52.83
65754;BME280;52488;47.502;18.940;2022-07-29T04:30:16;98068.03;;;21.38;52.75
65754;BME280;52488;47.502;18.940;2022-07-29T04:31:19;98067.25;;;21.35;52.78
65754;BME280;52488;47.502;18.940;2022-07-29T04:32:27;98075.38;;;21.53;52.31
65754;BME280;52488;47.502;18.940;2022-07-29T04:33:29;98072.56;;;21.53;52.40
65754;BME280;52488;47.502;18.940;2022-07-29T04:34:32;98071.00;;;21.46;52.53
65754;BME280;52488;47.502;18.940;2022-07-29T04:35:37;98078.72;;;21.48;52.51
65754;BME280;52488;47.502;18.940;2022-07-29T04:36:54;98075.22;;;21.47;52.59
65754;BME280;52488;47.502;18.940;2022-07-29T04:37:57;98077.25;;;21.45;52.70
65754;BME280;52488;47.502;18.940;2022-07-29T04:39:00;98080.22;;;21.51;52.48
65754;BME280;52488;47.502;18.940;2022-07-29T04:40:04;98074.41;;;21.43;52.77
65754;BME280;52488;47.502;18.940;2022-07-29T04:41:07;98069.69;;;21.49;52.57
65754;BME280;52488;47.502;18.940;2022-07-29T04:42:12;98078.97;;;21.58;52.26
65754;BME280;52488;47.502;18.940;2022-07-29T04:43:15;98074.78;;;21.57;52.52
65754;BME280;52488;47.502;18.940;2022-07-29T04:44:24;98077.69;;;21.61;52.47
65754;BME280;52488;47.502;18.940;2022-07-29T04:45:30;98081.66;;;21.54;52.31
65754;BME280;52488;47.502;18.940;2022-07-29T04:46:34;98079.13;;;21.64;52.26
65754;BME280;52488;47.502;18.940;2022-07-29T04:47:37;98082.69;;;21.67;52.28
65754;BME280;52488;47.502;18.940;2022-07-29T04:48:40;98085.28;;;21.58;52.36
65754;BME280;52488;47.502;18.940;2022-07-29T04:49:43;98075.03;;;21.67;52.03
65754;BME280;52488;47.502;18.940;2022-07-29T04:50:46;98080.66;;;21.69;51.95
65754;BME280;52488;47.502;18.940;2022-07-29T04:51:48;98086.25;;;21.69;52.13
65754;BME280;52488;47.502;18.940;2022-07-29T04:52:51;98077.12;;;21.67;52.70
65754;BME280;52488;47.502;18.940;2022-07-29T04:53:54;98076.44;;;21.68;52.91
65754;BME280;52488;47.502;18.940;2022-07-29T04:54:57;98078.63;;;21.72;52.29
65754;BME280;52488;47.502;18.940;2022-07-29T04:55:59;98080.00;;;21.71;52.22
65754;BME280;52488;47.502;18.940;2022-07-29T04:57:02;98083.66;;;21.77;52.50
65754;BME280;52488;47.502;18.940;2022-07-29T04:58:05;98078.06;;;21.77;52.58
65754;BME280;52488;47.502;18.940;2022-07-29T04:59:08;98076.12;;;21.84;52.67
65754;BME280;52488;47.502;18.940;2022-07-29T05:00:14;98080.31;;;21.83;52.02
65754;BME280;52488;47.502;18.940;2022-07-29T05:01:17;98079.87;;;21.95;51.83
65754;BME280;52488;47.502;18.940;2022-07-29T05:02:20;98079.19;;;21.96;51.61
65754;BME280;52488;47.502;18.940;2022-07-29T05:03:24;98082.72;;;21.97;51.87
65754;BME280;52488;47.502;18.940;2022-07-29T05:04:27;98087.03;;;22.02;51.43
65754;BME280;52488;47.502;18.940;2022-07-29T05:05:30;98078.78;;;22.08;51.77
65754;BME280;52488;47.502;18.940;2022-07-29T05:06:33;98081.78;;;22.16;51.33
65754;BME280;52488;47.502;18.940;2022-07-29T05:07:37;98086.63;;;22.13;51.57
65754;BME280;52488;47.502;18.940;2022-07-29T05:08:40;98088.59;;;22.09;51.42
65754;BME280;52488;47.502;18.940;2022-07-29T05:09:43;98086.41;;;22.05;51.77
65754;BME280;52488;47.502;18.940;2022-07-29T05:10:47;98082.28;;;22.08;51.93
65754;BME280;52488;47.502;18.940;2022-07-29T05:11:50;98077.56;;;22.15;50.96
65754;BME280;52488;47.502;18.940;2022-07-29T05:12:52;98077.56;;;22.15;51.29
65754;BME280;52488;47.502;18.940;2022-07-29T05:13:55;98088.16;;;22.21;51.35
65754;BME280;52488;47.502;18.940;2022-07-29T05:14:59;98084.62;;;22.18;51.50
65754;BME280;52488;47.502;18.940;2022-07-29T05:16:02;98081.47;;;22.34;51.04
65754;BME280;52488;47.502;18.940;2022-07-29T05:17:05;98075.19;;;22.33;50.94
65754;BME280;52488;47.502;18.940;2022-07-29T05:18:08;98077.12;;;22.27;51.27
65754;BME280;52488;47.502;18.940;2022-07-29T05:19:11;98076.00;;;22.40;51.12
65754;BME280;52488;47.502;18.940;2022-07-29T05:20:16;98074.19;;;22.53;50.55
65754;BME280;52488;47.502;18.940;2022-07-29T05:21:21;98075.34;;;22.42;50.88
65754;BME280;52488;47.502;18.940;2022-07-29T05:22:24;98079.19;;;22.58;50.38
65754;BME280;52488;47.502;18.940;2022-07-29T05:23:27;98079.13;;;22.54;50.27
65754;BME280;52488;47.502;18.940;2022-07-29T05:24:30;98078.28;;;22.48;50.30
65754;BME280;52488;47.502;18.940;2022-07-29T05:25:33;98081.13;;;22.50;50.82
65754;BME280;52488;47.502;18.940;2022-07-29T05:26:45;98083.41;;;22.59;50.70
65754;BME280;52488;47.502;18.940;2022-07-29T05:27:48;98084.19;;;22.62;50.13
65754;BME280;52488;47.502;18.940;2022-07-29T05:28:52;98084.62;;;22.50;50.61
65754;BME280;52488;47.502;18.940;2022-07-29T05:29:56;98089.66;;;22.56;50.44
65754;BME280;52488;47.502;18.940;2022-07-29T05:30:59;98095.25;;;22.56;50.75
65754;BME280;52488;47.502;18.940;2022-07-29T05:32:03;98086.78;;;22.54;50.52
65754;BME280;52488;47.502;18.940;2022-07-29T05:33:06;98082.66;;;22.57;50.36
65754;BME280;52488;47.502;18.940;2022-07-29T05:34:29;98090.56;;;22.66;50.15
65754;BME280;52488;47.502;18.940;2022-07-29T05:35:33;98086.31;;;22.63;50.07
65754;BME280;52488;47.502;18.940;2022-07-29T05:36:37;98086.97;;;22.62;50.30
65754;BME280;52488;47.502;18.940;2022-07-29T05:37:40;98081.53;;;22.70;50.02
65754;BME280;52488;47.502;18.940;2022-07-29T05:38:43;98089.16;;;22.65;49.86
65754;BME280;52488;47.502;18.940;2022-07-29T05:39:47;98088.59;;;22.73;49.85
65754;BME280;52488;47.502;18.940;2022-07-29T05:40:58;98085.03;;;22.71;49.76
65754;BME280;52488;47.502;18.940;2022-07-29T05:42:02;98078.66;;;22.66;50.10
65754;BME280;52488;47.502;18.940;2022-07-29T05:43:05;98082.91;;;22.69;49.74
65754;BME280;52488;47.502;18.940;2022-07-29T05:44:08;98085.00;;;22.69;50.02
65754;BME280;52488;47.502;18.940;2022-07-29T05:45:11;98078.84;;;22.76;50.20
65754;BME280;52488;47.502;18.940;2022-07-29T05:46:14;98084.78;;;22.90;49.87
65754;BME280;52488;47.502;18.940;2022-07-29T05:47:18;98083.44;;;22.94;49.73
65754;BME280;52488;47.502;18.940;2022-07-29T05:48:21;98085.56;;;22.95;49.98
65754;BME280;52488;47.502;18.940;2022-07-29T05:49:24;98090.19;;;22.82;49.65
65754;BME280;52488;47.502;18.940;2022-07-29T05:50:31;98091.78;;;22.91;49.76
65754;BME280;52488;47.502;18.940;2022-07-29T05:51:34;98089.78;;;22.96;49.44
65754;BME280;52488;47.502;18.940;2022-07-29T05:52:37;98083.47;;;22.96;49.29
65754;BME280;52488;47.502;18.940;2022-07-29T05:53:40;98091.97;;;23.00;49.42
65754;BME280;52488;47.502;18.940;2022-07-29T05:54:43;98097.41;;;22.91;49.57
65754;BME280;52488;47.502;18.940;2022-07-29T05:55:47;98094.75;;;23.00;49.39
65754;BME280;52488;47.502;18.940;2022-07-29T05:56:50;98090.47;;;22.95;49.81
65754;BME280;52488;47.502;18.940;2022-07-29T05:57:53;98085.56;;;22.95;49.49
65754;BME280;52488;47.502;18.940;2022-07-29T05:58:56;98091.25;;;22.99;49.74
65754;BME280;52488;47.502;18.940;2022-07-29T05:59:59;98099.28;;;23.17;49.18
65754;BME280;52488;47.502;18.940;2022-07-29T06:01:03;98091.56;;;23.15;49.49